Time;durP1;ratioP1;P1;durP2;ratioP2;P2;SDS_P1;SDS_P2;PMS_P1;PMS_P2;Temp;Humidity;BMP_temperature;BMP_pressure;BME280_temperature;BME280_humidity;BME280_pressure;Samples;Min_cycle;Max_cycle;Signal;HPM_P1;HPM_P2
2023/10/01 00:02:00;;;;;;;14.07;7.00;;;;;;;;;;5045513;27;20408;-72
2023/10/01 00:04:31;;;;;;;13.85;6.53;;;;;;;;;;5036623;28;20059;-73
2023/10/01 00:06:59;;;;;;;14.15;7.22;;;;;;;;;;5040133;28;20053;-73
2023/10/01 00:21:47;;;;;;;14.43;6.30;;;;;;;;;;5085772;27;20418;-74
2023/10/01 00:24:14;;;;;;;17.08;6.22;;;;;;;;;;5073951;27;20036;-74
2023/10/01 00:26:43;;;;;;;17.45;6.32;;;;;;;;;;5066879;28;20074;-74
2023/10/01 00:29:10;;;;;;;13.63;5.60;;;;;;;;;;4980084;28;20057;-73
2023/10/01 00:31:58;;;;;;;15.70;6.23;;;;;;;;;;4958878;28;20046;-73
2023/10/01 00:34:28;;;;;;;13.77;6.22;;;;;;;;;;4974414;28;20384;-74
2023/10/01 00:37:01;;;;;;;17.85;7.32;;;;;;;;;;4951675;28;20050;-73
2023/10/01 00:41:12;;;;;;;12.88;6.05;;;;;;;;;;5052782;27;20411;-68
2023/10/01 00:43:44;;;;;;;15.95;6.25;;;;;;;;;;5014080;28;20064;-69
2023/10/01 00:46:14;;;;;;;14.05;5.55;;;;;;;;;;5017716;28;20060;-69
2023/10/01 00:48:48;;;;;;;13.23;5.63;;;;;;;;;;5011894;28;20124;-70
2023/10/01 00:51:20;;;;;;;14.13;5.70;;;;;;;;;;4954555;28;20235;-70
2023/10/01 00:53:49;;;;;;;14.38;5.90;;;;;;;;;;4977377;28;20050;-69
2023/10/01 00:56:25;;;;;;;13.63;5.47;;;;;;;;;;4979485;28;20053;-70
2023/10/01 00:58:56;;;;;;;18.88;5.40;;;;;;;;;;4962895;28;20147;-69
2023/10/01 01:01:26;;;;;;;15.77;5.80;;;;;;;;;;4973823;28;20069;-70
2023/10/01 01:03:55;;;;;;;11.85;4.93;;;;;;;;;;4977837;28;20050;-69
2023/10/01 01:06:36;;;;;;;13.70;5.20;;;;;;;;;;4994473;28;20080;-70
2023/10/01 01:09:15;;;;;;;12.70;5.10;;;;;;;;;;4965150;28;20054;-71
2023/10/01 01:11:47;;;;;;;11.52;5.28;;;;;;;;;;4982150;28;20062;-68
2023/10/01 01:14:15;;;;;;;13.82;5.43;;;;;;;;;;5016107;28;20045;-71
2023/10/01 01:16:42;;;;;;;12.30;5.72;;;;;;;;;;4983577;28;20050;-69
2023/10/01 01:19:10;;;;;;;14.68;6.25;;;;;;;;;;4960564;28;20117;-69
2023/10/01 01:21:42;;;;;;;15.90;6.65;;;;;;;;;;4962019;28;20070;-69
2023/10/01 01:24:10;;;;;;;16.08;6.78;;;;;;;;;;4965588;28;20073;-68
2023/10/01 01:26:37;;;;;;;21.30;7.95;;;;;;;;;;4969660;28;20050;-71
2023/10/01 01:29:17;;;;;;;21.80;9.25;;;;;;;;;;4973114;28;20052;-68
2023/10/01 01:31:45;;;;;;;13.77;7.00;;;;;;;;;;4976231;28;20056;-71
2023/10/01 01:34:15;;;;;;;13.27;5.45;;;;;;;;;;4994722;28;20062;-68
2023/10/01 01:36:42;;;;;;;12.75;5.70;;;;;;;;;;4985822;28;20124;-70
2023/10/01 01:39:27;;;;;;;14.05;5.13;;;;;;;;;;4962877;28;20132;-68
2023/10/01 01:41:54;;;;;;;12.80;5.25;;;;;;;;;;4972860;28;20134;-71
2023/10/01 01:44:23;;;;;;;16.70;6.03;;;;;;;;;;4970731;28;20073;-69
2023/10/01 01:46:50;;;;;;;12.70;5.03;;;;;;;;;;4973715;28;20065;-70
2023/10/01 01:49:19;;;;;;;11.27;4.80;;;;;;;;;;4958796;28;20058;-72
2023/10/01 01:51:57;;;;;;;12.88;5.20;;;;;;;;;;4964018;28;20070;-71
2023/10/01 01:54:29;;;;;;;13.68;5.05;;;;;;;;;;4973958;28;20140;-70
2023/10/01 01:57:00;;;;;;;12.40;4.82;;;;;;;;;;4961407;28;21480;-69
2023/10/01 01:59:28;;;;;;;12.02;4.45;;;;;;;;;;4955211;28;20085;-69
2023/10/01 02:01:56;;;;;;;10.53;4.20;;;;;;;;;;4959681;28;20096;-70
2023/10/01 02:04:22;;;;;;;16.48;4.63;;;;;;;;;;4941533;28;20050;-70
2023/10/01 02:06:52;;;;;;;17.15;5.10;;;;;;;;;;4958476;28;20054;-69
2023/10/01 02:09:20;;;;;;;11.63;4.80;;;;;;;;;;4984683;28;20055;-69
2023/10/01 02:11:50;;;;;;;13.48;5.03;;;;;;;;;;4959593;28;20055;-70
2023/10/01 02:14:31;;;;;;;12.48;4.55;;;;;;;;;;4986789;28;20157;-69
2023/10/01 02:17:13;;;;;;;10.38;4.30;;;;;;;;;;4957136;28;20059;-70
2023/10/01 02:19:40;;;;;;;10.95;4.82;;;;;;;;;;4961464;28;20140;-69
2023/10/01 02:22:08;;;;;;;11.70;4.97;;;;;;;;;;4964293;28;20062;-69
2023/10/01 02:24:44;;;;;;;10.82;4.07;;;;;;;;;;4966388;28;20051;-70
2023/10/01 02:27:13;;;;;;;11.80;3.38;;;;;;;;;;4933144;28;20063;-70
2023/10/01 02:30:11;;;;;;;11.40;4.20;;;;;;;;;;4942731;28;20144;-69
2023/10/01 02:35:33;;;;;;;14.93;4.13;;;;;;;;;;4931217;28;20051;-66
2023/10/01 02:37:51;;;;;;;12.65;4.05;;;;;;;;;;4923681;29;20071;-67
2023/10/01 02:40:18;;;;;;;12.45;3.70;;;;;;;;;;4940894;28;20062;-67
2023/10/01 02:42:49;;;;;;;9.93;3.80;;;;;;;;;;4943247;29;20051;-66
2023/10/01 02:45:36;;;;;;;12.15;3.72;;;;;;;;;;4903335;29;20058;-66
2023/10/01 02:50:51;;;;;;;12.15;3.78;;;;;;;;;;4921891;29;20126;-66
2023/10/01 02:53:20;;;;;;;9.18;3.38;;;;;;;;;;4916810;29;20162;-65
2023/10/01 02:55:47;;;;;;;11.93;4.25;;;;;;;;;;4935695;28;20130;-65
2023/10/01 02:58:18;;;;;;;9.88;3.45;;;;;;;;;;4941001;29;20059;-66
2023/10/01 03:00:45;;;;;;;12.73;3.45;;;;;;;;;;4923939;29;20066;-67
2023/10/01 03:03:15;;;;;;;13.52;3.38;;;;;;;;;;4915313;29;20059;-67
2023/10/01 03:05:46;;;;;;;9.52;3.65;;;;;;;;;;4907725;29;20129;-65
2023/10/01 03:08:41;;;;;;;11.43;3.30;;;;;;;;;;4943958;28;20100;-67
2023/10/01 03:11:08;;;;;;;8.68;3.45;;;;;;;;;;4950679;28;20059;-66
2023/10/01 03:13:37;;;;;;;16.65;4.22;;;;;;;;;;4943036;28;20051;-66
2023/10/01 03:18:48;;;;;;;11.00;3.83;;;;;;;;;;4942257;28;20076;-65
2023/10/01 03:21:19;;;;;;;11.98;3.88;;;;;;;;;;4935439;28;20055;-67
2023/10/01 03:23:54;;;;;;;9.60;3.17;;;;;;;;;;4947250;28;20098;-67
2023/10/01 03:26:21;;;;;;;12.07;3.20;;;;;;;;;;4933152;28;20050;-66
2023/10/01 03:31:37;;;;;;;9.82;2.78;;;;;;;;;;4960869;28;20138;-66
2023/10/01 03:34:05;;;;;;;9.45;3.08;;;;;;;;;;4938679;28;20149;-66
2023/10/01 03:36:32;;;;;;;10.95;3.17;;;;;;;;;;4944097;28;20195;-66
2023/10/01 03:39:25;;;;;;;10.20;3.10;;;;;;;;;;4937959;28;20043;-66
2023/10/01 03:41:54;;;;;;;11.98;3.65;;;;;;;;;;4959343;28;20066;-66
2023/10/01 03:47:08;;;;;;;11.82;3.05;;;;;;;;;;4937967;28;20132;-66
2023/10/01 03:49:37;;;;;;;10.45;3.13;;;;;;;;;;4958382;28;20049;-66
2023/10/01 03:52:04;;;;;;;9.52;3.00;;;;;;;;;;4942845;28;20172;-65
2023/10/01 03:57:17;;;;;;;11.38;3.22;;;;;;;;;;4935359;28;20101;-67
2023/10/01 03:59:51;;;;;;;8.07;3.17;;;;;;;;;;4947212;28;20111;-67
2023/10/01 04:02:28;;;;;;;9.98;3.25;;;;;;;;;;4960680;28;20213;-67
2023/10/01 04:04:58;;;;;;;10.05;3.05;;;;;;;;;;4956229;28;20051;-67
2023/10/01 04:07:26;;;;;;;10.82;3.05;;;;;;;;;;4955003;28;20856;-66
2023/10/01 04:09:54;;;;;;;9.05;3.33;;;;;;;;;;4946753;28;20050;-66
2023/10/01 04:12:32;;;;;;;10.48;3.47;;;;;;;;;;4946655;28;20046;-66
2023/10/01 04:15:03;;;;;;;11.80;3.20;;;;;;;;;;4937148;28;20062;-66
2023/10/01 04:17:35;;;;;;;10.88;3.47;;;;;;;;;;4941561;28;20050;-67
2023/10/01 04:20:12;;;;;;;11.75;3.53;;;;;;;;;;4945559;28;20050;-66
2023/10/01 04:22:40;;;;;;;10.90;3.53;;;;;;;;;;4944369;28;20047;-65
2023/10/01 04:25:10;;;;;;;9.63;3.25;;;;;;;;;;4911289;28;20067;-66
2023/10/01 04:27:41;;;;;;;8.00;2.95;;;;;;;;;;4945822;28;20118;-66
2023/10/01 04:30:11;;;;;;;10.05;3.10;;;;;;;;;;4943088;28;20043;-65
2023/10/01 04:32:39;;;;;;;8.40;3.30;;;;;;;;;;4954363;28;20058;-65
2023/10/01 04:35:14;;;;;;;12.18;3.47;;;;;;;;;;4926519;28;20051;-67
2023/10/01 04:37:44;;;;;;;13.52;3.40;;;;;;;;;;4962971;28;20054;-66
2023/10/01 04:42:52;;;;;;;12.38;3.53;;;;;;;;;;4976931;28;20066;-65
2023/10/01 04:45:23;;;;;;;8.93;2.92;;;;;;;;;;4965057;28;20050;-66
2023/10/01 04:47:55;;;;;;;13.18;3.20;;;;;;;;;;4943566;28;20059;-66
2023/10/01 04:50:27;;;;;;;7.45;3.03;;;;;;;;;;4942701;28;20051;-65
2023/10/01 04:52:59;;;;;;;12.85;3.80;;;;;;;;;;4963079;28;20073;-67
2023/10/01 04:55:28;;;;;;;9.82;3.25;;;;;;;;;;4930923;28;20090;-66
2023/10/01 04:57:56;;;;;;;12.27;3.40;;;;;;;;;;4942824;28;20058;-66
2023/10/01 05:00:27;;;;;;;9.35;3.15;;;;;;;;;;4960877;28;20074;-66
2023/10/01 05:03:03;;;;;;;10.40;2.95;;;;;;;;;;4934171;29;20146;-67
2023/10/01 05:05:29;;;;;;;11.55;3.20;;;;;;;;;;4919428;28;20160;-67
2023/10/01 05:07:57;;;;;;;11.80;3.42;;;;;;;;;;4943484;28;20093;-66
2023/10/01 05:10:26;;;;;;;12.60;3.30;;;;;;;;;;4944653;28;20059;-67
2023/10/01 05:12:56;;;;;;;;;;;;;;;;;;4942981;28;20150;-65
2023/10/01 05:15:27;;;;;;;11.68;2.80;;;;;;;;;;4935221;28;19933;-66
2023/10/01 05:17:55;;;;;;;7.50;3.13;;;;;;;;;;4941836;28;20051;-65
2023/10/01 05:20:23;;;;;;;10.63;3.40;;;;;;;;;;4942295;28;20061;-65
2023/10/01 05:22:54;;;;;;;14.43;3.80;;;;;;;;;;4959280;28;20062;-65
2023/10/01 05:25:24;;;;;;;11.57;3.47;;;;;;;;;;4932797;28;20070;-67
2023/10/01 05:27:54;;;;;;;11.20;3.08;;;;;;;;;;4946492;28;20066;-66
2023/10/01 05:30:38;;;;;;;11.00;3.13;;;;;;;;;;4944110;28;20054;-65
2023/10/01 05:33:11;;;;;;;10.25;3.08;;;;;;;;;;4935460;28;20142;-66
2023/10/01 05:35:41;;;;;;;11.02;3.13;;;;;;;;;;4928551;29;20126;-66
2023/10/01 05:38:10;;;;;;;7.78;2.75;;;;;;;;;;4944412;29;20063;-66
2023/10/01 05:40:37;;;;;;;12.88;3.30;;;;;;;;;;4943138;28;20106;-67
2023/10/01 05:43:13;;;;;;;13.25;3.15;;;;;;;;;;4941318;28;20109;-65
2023/10/01 05:45:41;;;;;;;9.38;3.05;;;;;;;;;;4921830;28;20046;-66
2023/10/01 05:48:18;;;;;;;11.38;3.55;;;;;;;;;;4941945;29;20059;-66
2023/10/01 05:50:46;;;;;;;10.48;3.13;;;;;;;;;;4939150;29;20055;-65
2023/10/01 05:53:13;;;;;;;11.60;3.60;;;;;;;;;;4920629;28;20054;-65
2023/10/01 05:55:46;;;;;;;10.32;3.42;;;;;;;;;;4935939;28;20059;-65
2023/10/01 05:58:21;;;;;;;9.20;3.58;;;;;;;;;;4942771;28;20087;-66
2023/10/01 06:00:56;;;;;;;8.68;3.20;;;;;;;;;;4928634;29;20149;-65
2023/10/01 06:03:26;;;;;;;11.70;3.15;;;;;;;;;;4939414;28;20063;-66
2023/10/01 06:05:57;;;;;;;11.10;3.35;;;;;;;;;;4922844;28;20158;-65
2023/10/01 06:08:25;;;;;;;12.05;3.67;;;;;;;;;;4943149;28;20102;-67
2023/10/01 06:11:06;;;;;;;15.55;3.75;;;;;;;;;;4943907;28;20051;-65
2023/10/01 06:13:37;;;;;;;12.68;3.58;;;;;;;;;;4944481;28;20063;-67
2023/10/01 06:16:14;;;;;;;11.27;3.38;;;;;;;;;;4939584;28;20059;-66
2023/10/01 06:18:49;;;;;;;14.25;3.90;;;;;;;;;;4940308;28;20056;-64
2023/10/01 06:21:18;;;;;;;10.85;3.40;;;;;;;;;;4919769;28;20147;-66
2023/10/01 06:23:50;;;;;;;10.18;3.53;;;;;;;;;;4922870;29;20146;-65
2023/10/01 06:26:22;;;;;;;10.35;3.60;;;;;;;;;;4917880;29;20055;-66
2023/10/01 06:28:50;;;;;;;11.65;3.88;;;;;;;;;;4932805;29;20047;-65
2023/10/01 06:31:20;;;;;;;9.40;3.30;;;;;;;;;;4938379;28;20070;-65
2023/10/01 06:33:53;;;;;;;11.55;3.28;;;;;;;;;;4942027;28;20055;-65
2023/10/01 06:36:25;;;;;;;12.73;3.45;;;;;;;;;;4927735;28;20050;-65
2023/10/01 06:38:55;;;;;;;11.82;3.20;;;;;;;;;;4941535;28;20059;-67
2023/10/01 06:41:28;;;;;;;12.85;4.05;;;;;;;;;;4939932;28;20061;-65
2023/10/01 06:44:01;;;;;;;10.48;3.58;;;;;;;;;;4943049;29;20055;-67
2023/10/01 06:46:30;;;;;;;10.77;3.25;;;;;;;;;;4933485;28;20061;-65
2023/10/01 06:49:03;;;;;;;14.07;3.63;;;;;;;;;;4941360;28;20100;-67
2023/10/01 06:51:43;;;;;;;15.20;3.72;;;;;;;;;;4943362;29;20058;-66
2023/10/01 06:54:15;;;;;;;13.25;3.30;;;;;;;;;;4946978;28;20055;-67
2023/10/01 06:56:47;;;;;;;10.27;3.78;;;;;;;;;;4942912;28;20073;-67
2023/10/01 06:59:17;;;;;;;15.30;4.40;;;;;;;;;;4939816;28;20054;-67
2023/10/01 07:01:48;;;;;;;13.98;3.90;;;;;;;;;;4940912;28;20217;-65
2023/10/01 07:04:20;;;;;;;10.05;3.15;;;;;;;;;;4907041;28;20063;-67
2023/10/01 07:06:50;;;;;;;31.55;11.05;;;;;;;;;;4923423;29;20079;-68
2023/10/01 07:09:27;;;;;;;20.88;8.88;;;;;;;;;;4917797;28;20063;-67
2023/10/01 07:11:56;;;;;;;13.70;4.25;;;;;;;;;;4933764;28;20054;-65
2023/10/01 07:14:38;;;;;;;14.77;4.20;;;;;;;;;;4922448;28;20047;-67
2023/10/01 07:17:08;;;;;;;12.20;4.30;;;;;;;;;;4935625;28;20063;-66
2023/10/01 07:19:45;;;;;;;11.38;4.13;;;;;;;;;;4940395;28;20059;-66
2023/10/01 07:22:14;;;;;;;12.82;3.92;;;;;;;;;;4937323;29;20114;-66
2023/10/01 07:24:42;;;;;;;12.90;3.63;;;;;;;;;;4872566;28;20054;-66
2023/10/01 07:27:11;;;;;;;10.13;3.60;;;;;;;;;;4932942;28;20073;-66
2023/10/01 07:29:41;;;;;;;10.82;3.80;;;;;;;;;;4939183;28;20051;-65
2023/10/01 07:32:12;;;;;;;13.38;3.72;;;;;;;;;;4937970;28;20051;-66
2023/10/01 07:34:39;;;;;;;10.98;3.65;;;;;;;;;;4947605;28;20105;-66
2023/10/01 07:37:23;;;;;;;12.10;3.67;;;;;;;;;;4934495;28;20059;-67
2023/10/01 07:39:52;;;;;;;12.65;3.75;;;;;;;;;;4956769;28;20067;-67
2023/10/01 07:42:19;;;;;;;10.77;3.75;;;;;;;;;;4938632;28;20062;-69
2023/10/01 07:44:45;;;;;;;27.60;10.88;;;;;;;;;;4954138;28;20078;-67
2023/10/01 07:47:28;;;;;;;35.45;11.65;;;;;;;;;;4934123;28;20055;-67
2023/10/01 07:49:56;;;;;;;15.95;5.38;;;;;;;;;;4939023;28;20054;-66
2023/10/01 07:52:25;;;;;;;12.57;4.05;;;;;;;;;;4941405;28;20086;-66
2023/10/01 07:54:55;;;;;;;13.50;3.88;;;;;;;;;;4915636;28;20148;-65
2023/10/01 07:57:27;;;;;;;13.75;4.15;;;;;;;;;;4952771;28;20038;-68
2023/10/01 07:59:54;;;;;;;15.40;4.25;;;;;;;;;;4941460;28;20135;-67
2023/10/01 08:02:21;;;;;;;13.85;4.28;;;;;;;;;;4941701;28;20058;-67
2023/10/01 08:04:57;;;;;;;11.27;4.07;;;;;;;;;;4884186;29;20088;-65
2023/10/01 08:07:39;;;;;;;13.73;4.72;;;;;;;;;;4941921;28;20912;-67
2023/10/01 08:10:16;;;;;;;14.25;3.90;;;;;;;;;;4940141;28;20141;-66
2023/10/01 08:15:32;;;;;;;12.27;4.20;;;;;;;;;;4919998;28;20091;-67
2023/10/01 08:18:19;;;;;;;13.50;4.15;;;;;;;;;;4958086;28;20082;-68
2023/10/01 08:20:57;;;;;;;15.73;5.10;;;;;;;;;;4958456;28;20209;-69
2023/10/01 08:23:36;;;;;;;14.57;5.18;;;;;;;;;;4923400;28;20079;-66
2023/10/01 08:28:44;;;;;;;11.52;4.43;;;;;;;;;;4956251;28;20066;-67
2023/10/01 08:34:22;;;;;;;15.82;5.05;;;;;;;;;;4953173;28;20066;-67
2023/10/01 08:36:42;;;;;;;10.90;4.07;;;;;;;;;;4933202;28;20062;-68
2023/10/01 08:42:12;;;;;;;36.35;13.23;;;;;;;;;;4893000;29;20062;-67
2023/10/01 08:44:49;;;;;;;19.75;6.32;;;;;;;;;;4913289;28;20071;-66
2023/10/01 08:47:34;;;;;;;17.35;5.13;;;;;;;;;;4917723;28;20138;-65
2023/10/01 08:53:01;;;;;;;17.45;5.20;;;;;;;;;;4928897;28;20106;-66
2023/10/01 08:55:39;;;;;;;24.17;5.60;;;;;;;;;;4921059;28;20145;-65
2023/10/01 08:58:15;;;;;;;26.83;6.20;;;;;;;;;;4936774;28;20083;-66
2023/10/01 09:00:50;;;;;;;19.93;5.83;;;;;;;;;;4939075;28;20043;-67
2023/10/01 09:03:28;;;;;;;15.70;5.70;;;;;;;;;;4937638;29;20058;-65
2023/10/01 09:06:03;;;;;;;17.60;4.93;;;;;;;;;;4920141;28;20059;-65
2023/10/01 09:08:31;;;;;;;21.42;5.75;;;;;;;;;;4940567;28;20051;-65
2023/10/01 09:11:21;;;;;;;17.98;5.22;;;;;;;;;;4939670;29;20074;-66
2023/10/01 09:13:58;;;;;;;23.55;8.32;;;;;;;;;;4941725;28;20087;-65
2023/10/01 09:16:32;;;;;;;30.55;10.98;;;;;;;;;;4951599;28;20096;-66
2023/10/01 09:19:30;;;;;;;27.23;9.18;;;;;;;;;;4938610;29;20062;-65
2023/10/01 09:21:55;;;;;;;18.73;6.03;;;;;;;;;;4941052;29;20058;-65
2023/10/01 09:24:38;;;;;;;25.73;6.47;;;;;;;;;;4939218;28;20102;-67
2023/10/01 09:27:18;;;;;;;17.83;5.65;;;;;;;;;;4934486;28;20063;-64
2023/10/01 09:29:48;;;;;;;16.90;5.25;;;;;;;;;;4943511;28;20149;-67
2023/10/01 09:32:19;;;;;;;18.92;5.70;;;;;;;;;;4968714;28;20078;-67
2023/10/01 09:34:58;;;;;;;20.58;5.78;;;;;;;;;;4935163;28;20058;-65
2023/10/01 09:37:34;;;;;;;;;;;;;;;;;;4940251;28;20062;-66
2023/10/01 09:40:12;;;;;;;17.85;6.00;;;;;;;;;;4952229;28;20024;-66
2023/10/01 09:42:45;;;;;;;28.83;5.43;;;;;;;;;;4943322;28;20058;-67
2023/10/01 09:45:27;;;;;;;42.40;16.50;;;;;;;;;;4905000;28;20062;-66
2023/10/01 09:48:07;;;;;;;20.08;6.55;;;;;;;;;;4925485;29;20110;-66
2023/10/01 09:50:41;;;;;;;24.02;7.43;;;;;;;;;;4952441;28;20050;-68
2023/10/01 09:53:13;;;;;;;19.20;5.85;;;;;;;;;;4936059;28;20047;-66
2023/10/01 09:55:55;;;;;;;21.60;5.78;;;;;;;;;;4918412;28;20058;-69
2023/10/01 09:58:28;;;;;;;24.05;4.93;;;;;;;;;;4944544;28;20059;-70
2023/10/01 10:01:00;;;;;;;19.33;5.75;;;;;;;;;;4943412;28;20055;-68
2023/10/01 10:03:36;;;;;;;16.77;5.80;;;;;;;;;;4964936;28;20065;-66
2023/10/01 10:06:06;;;;;;;22.45;5.70;;;;;;;;;;4952008;28;20054;-69
2023/10/01 10:08:34;;;;;;;19.45;5.68;;;;;;;;;;4958487;28;20072;-71
2023/10/01 10:11:06;;;;;;;17.42;5.68;;;;;;;;;;4958740;28;20046;-66
2023/10/01 10:13:45;;;;;;;29.02;6.85;;;;;;;;;;4943959;28;20147;-66
2023/10/01 10:16:31;;;;;;;20.17;7.18;;;;;;;;;;4921590;28;20069;-64
2023/10/01 10:19:06;;;;;;;19.95;7.60;;;;;;;;;;4922751;29;20083;-67
2023/10/01 10:22:25;;;;;;;24.98;8.25;;;;;;;;;;4938828;29;20051;-69
2023/10/01 10:25:25;;;;;;;16.17;5.50;;;;;;;;;;4908884;28;20134;-63
2023/10/01 10:27:56;;;;;;;20.42;5.90;;;;;;;;;;4940462;28;20051;-63
2023/10/01 10:30:27;;;;;;;20.88;6.65;;;;;;;;;;4943702;28;20152;-65
2023/10/01 10:33:30;;;;;;;19.35;5.10;;;;;;;;;;4947275;28;20055;-63
2023/10/01 10:36:51;;;;;;;15.10;5.05;;;;;;;;;;4937364;28;20112;-68
2023/10/01 10:40:26;;;;;;;16.83;5.25;;;;;;;;;;4953530;28;20082;-66
2023/10/01 10:43:16;;;;;;;15.68;4.93;;;;;;;;;;4952609;28;20055;-68
2023/10/01 10:46:01;;;;;;;11.05;4.70;;;;;;;;;;4938950;28;20054;-67
2023/10/01 10:48:59;;;;;;;19.65;5.15;;;;;;;;;;4944675;28;20050;-74
2023/10/01 10:51:47;;;;;;;17.10;5.38;;;;;;;;;;4924549;29;20055;-65
2023/10/01 10:54:29;;;;;;;16.23;6.43;;;;;;;;;;4941933;28;20077;-68
2023/10/01 10:56:58;;;;;;;20.00;5.43;;;;;;;;;;4937186;29;20087;-69
2023/10/01 10:59:25;;;;;;;17.08;5.43;;;;;;;;;;4927617;28;20061;-70
2023/10/01 11:01:56;;;;;;;14.25;5.20;;;;;;;;;;4948246;28;20055;-68
2023/10/01 11:04:31;;;;;;;16.45;5.50;;;;;;;;;;4960968;28;20058;-69
2023/10/01 11:07:05;;;;;;;19.52;5.78;;;;;;;;;;4930849;28;20420;-70
2023/10/01 11:09:33;;;;;;;19.60;6.30;;;;;;;;;;4943115;28;20050;-69
2023/10/01 11:12:07;;;;;;;17.48;5.75;;;;;;;;;;4959179;28;20067;-73
2023/10/01 11:14:35;;;;;;;35.60;13.95;;;;;;;;;;4941431;28;20061;-72
2023/10/01 11:17:07;;;;;;;29.83;8.40;;;;;;;;;;4935927;28;20054;-67
2023/10/01 11:19:36;;;;;;;23.67;7.70;;;;;;;;;;4943380;28;20054;-65
2023/10/01 11:22:05;;;;;;;29.67;7.63;;;;;;;;;;4943749;28;20070;-73
2023/10/01 11:24:33;;;;;;;25.38;8.18;;;;;;;;;;4943184;28;20066;-68
2023/10/01 11:27:43;;;;;;;21.90;7.07;;;;;;;;;;4938863;28;20058;-72
2023/10/01 11:30:16;;;;;;;20.45;6.32;;;;;;;;;;4912793;29;20059;-72
2023/10/01 11:33:01;;;;;;;19.67;6.07;;;;;;;;;;4960177;28;20137;-78
2023/10/01 11:35:35;;;;;;;16.92;5.47;;;;;;;;;;4954353;28;20056;-66
2023/10/01 11:38:08;;;;;;;19.20;5.85;;;;;;;;;;4962425;28;20181;-69
2023/10/01 11:43:32;;;;;;;16.85;5.45;;;;;;;;;;4938163;28;20130;-69
2023/10/01 11:46:18;;;;;;;18.13;5.63;;;;;;;;;;4954620;28;20128;-68
2023/10/01 11:48:58;;;;;;;18.23;5.60;;;;;;;;;;4960932;28;20062;-64
2023/10/01 11:51:36;;;;;;;18.67;5.80;;;;;;;;;;4938124;28;20054;-74
2023/10/01 11:54:11;;;;;;;19.07;5.73;;;;;;;;;;4960989;28;20059;-63
2023/10/01 11:56:41;;;;;;;22.33;5.63;;;;;;;;;;4908210;28;20051;-70
2023/10/01 11:59:17;;;;;;;20.58;6.70;;;;;;;;;;4963610;28;20150;-73
2023/10/01 12:01:50;;;;;;;21.50;5.97;;;;;;;;;;4950334;28;20077;-72
2023/10/01 12:04:24;;;;;;;17.63;5.85;;;;;;;;;;4973433;28;20058;-71
2023/10/01 12:06:59;;;;;;;17.45;5.57;;;;;;;;;;4941856;28;20113;-68
2023/10/01 12:09:39;;;;;;;15.00;5.75;;;;;;;;;;4961515;28;20064;-73
2023/10/01 12:12:08;;;;;;;17.70;5.05;;;;;;;;;;4956889;28;20062;-66
2023/10/01 12:14:52;;;;;;;16.50;5.32;;;;;;;;;;4943687;28;20054;-67
2023/10/01 12:17:23;;;;;;;17.55;4.65;;;;;;;;;;4932160;28;20046;-67
2023/10/01 12:19:55;;;;;;;18.77;5.75;;;;;;;;;;4944411;28;20051;-69
2023/10/01 12:22:27;;;;;;;40.80;18.30;;;;;;;;;;4958544;28;20062;-67
2023/10/01 12:24:57;;;;;;;20.05;7.30;;;;;;;;;;4955317;28;20140;-77
2023/10/01 12:27:40;;;;;;;15.40;4.78;;;;;;;;;;4901070;28;20065;-73
2023/10/01 12:30:11;;;;;;;12.73;3.97;;;;;;;;;;4957046;28;20063;-65
2023/10/01 12:32:48;;;;;;;15.80;4.78;;;;;;;;;;4961438;28;20150;-65
2023/10/01 12:35:28;;;;;;;13.68;4.15;;;;;;;;;;4904517;28;20056;-73
2023/10/01 12:38:22;;;;;;;12.25;3.92;;;;;;;;;;4943517;28;20055;-65
2023/10/01 12:40:52;;;;;;;15.88;4.93;;;;;;;;;;4958180;28;20063;-63
2023/10/01 12:46:00;;;;;;;12.88;4.25;;;;;;;;;;4916749;28;20076;-64
2023/10/01 12:48:26;;;;;;;18.50;5.15;;;;;;;;;;4957160;28;20141;-66
2023/10/01 12:51:03;;;;;;;17.67;4.38;;;;;;;;;;4956515;28;20158;-69
2023/10/01 12:53:34;;;;;;;14.50;4.47;;;;;;;;;;4941991;28;20059;-63
2023/10/01 12:56:02;;;;;;;13.55;3.88;;;;;;;;;;4909464;28;20061;-66
2023/10/01 12:58:35;;;;;;;14.27;4.32;;;;;;;;;;4931070;28;20146;-64
2023/10/01 13:01:07;;;;;;;13.13;3.85;;;;;;;;;;4937605;28;20090;-70
2023/10/01 13:03:42;;;;;;;14.35;4.05;;;;;;;;;;4942670;28;20047;-65
2023/10/01 13:06:12;;;;;;;12.98;3.58;;;;;;;;;;4953982;28;20146;-68
2023/10/01 13:08:41;;;;;;;13.52;3.97;;;;;;;;;;4940181;28;20059;-66
2023/10/01 13:11:09;;;;;;;12.45;4.15;;;;;;;;;;4958116;28;20062;-76
2023/10/01 13:13:36;;;;;;;;;;;;;;;;;;4943451;28;20059;-64
2023/10/01 13:16:02;;;;;;;12.95;3.50;;;;;;;;;;4936987;28;19925;-65
2023/10/01 13:18:29;;;;;;;12.43;3.97;;;;;;;;;;4943691;28;20046;-64
2023/10/01 13:21:09;;;;;;;20.40;7.10;;;;;;;;;;4956599;28;20055;-67
2023/10/01 13:23:44;;;;;;;17.48;4.75;;;;;;;;;;4942981;28;20069;-63
2023/10/01 13:26:15;;;;;;;18.95;6.50;;;;;;;;;;4944178;28;20054;-65
2023/10/01 13:28:47;;;;;;;11.57;3.97;;;;;;;;;;4959570;28;20113;-66
2023/10/01 13:31:35;;;;;;;12.55;4.10;;;;;;;;;;4933395;28;20051;-65
2023/10/01 13:34:20;;;;;;;14.15;4.40;;;;;;;;;;4919815;29;20055;-63
2023/10/01 13:39:52;;;;;;;13.45;3.97;;;;;;;;;;4936246;28;20007;-66
2023/10/01 14:09:54;;;;;;;19.85;4.40;;;;;;;;;;4956652;28;20051;-75
2023/10/01 14:15:20;;;;;;;17.35;5.03;;;;;;;;;;4952478;28;19933;-67
2023/10/01 14:17:53;;;;;;;16.45;5.22;;;;;;;;;;4929559;28;20150;-73
2023/10/01 14:20:44;;;;;;;14.52;4.95;;;;;;;;;;4947178;29;20051;-64
2023/10/01 14:23:22;;;;;;;13.68;4.78;;;;;;;;;;4935173;28;20070;-74
2023/10/01 14:25:53;;;;;;;15.35;4.88;;;;;;;;;;4922982;28;20053;-67
2023/10/01 14:28:22;;;;;;;22.73;7.22;;;;;;;;;;4940555;28;20062;-60
2023/10/01 14:30:58;;;;;;;12.13;4.78;;;;;;;;;;4957124;28;20142;-70
2023/10/01 14:33:27;;;;;;;15.20;4.97;;;;;;;;;;4940233;28;20067;-67
2023/10/01 14:35:55;;;;;;;17.48;5.50;;;;;;;;;;4921705;28;20207;-67
2023/10/01 14:38:33;;;;;;;24.88;7.85;;;;;;;;;;4947074;28;20063;-63
2023/10/01 14:41:02;;;;;;;17.30;5.07;;;;;;;;;;4942718;29;20110;-64
2023/10/01 14:43:31;;;;;;;13.57;4.80;;;;;;;;;;4940652;28;20077;-65
2023/10/01 14:45:57;;;;;;;17.25;5.07;;;;;;;;;;4905902;28;20156;-65
2023/10/01 14:48:26;;;;;;;12.43;4.43;;;;;;;;;;4952594;28;20061;-69
2023/10/01 14:50:56;;;;;;;12.65;4.57;;;;;;;;;;4959858;28;20071;-71
2023/10/01 14:53:25;;;;;;;16.33;4.97;;;;;;;;;;4960378;28;20098;-66
2023/10/01 14:55:54;;;;;;;17.98;5.38;;;;;;;;;;4904803;28;20089;-71
2023/10/01 14:58:23;;;;;;;15.00;4.78;;;;;;;;;;4943715;28;20062;-65
2023/10/01 15:00:54;;;;;;;17.08;5.13;;;;;;;;;;4965707;28;20065;-64
2023/10/01 15:03:33;;;;;;;16.10;4.85;;;;;;;;;;4953448;28;20109;-66
2023/10/01 15:06:03;;;;;;;15.40;5.32;;;;;;;;;;4920483;28;20051;-65
2023/10/01 15:08:34;;;;;;;16.10;5.57;;;;;;;;;;4929965;29;20058;-62
2023/10/01 15:11:11;;;;;;;19.25;5.00;;;;;;;;;;4942198;28;20055;-66
2023/10/01 15:13:40;;;;;;;16.35;5.28;;;;;;;;;;4943123;28;20062;-64
2023/10/01 15:16:12;;;;;;;15.77;5.07;;;;;;;;;;4920972;28;20054;-73
2023/10/01 15:18:43;;;;;;;17.13;4.80;;;;;;;;;;4951064;28;20055;-65
2023/10/01 15:21:17;;;;;;;12.18;4.85;;;;;;;;;;4938306;28;20073;-70
2023/10/01 15:23:47;;;;;;;16.75;5.05;;;;;;;;;;4940445;29;20150;-71
2023/10/01 15:26:17;;;;;;;16.77;5.68;;;;;;;;;;4916295;28;20060;-67
2023/10/01 15:28:57;;;;;;;16.17;5.00;;;;;;;;;;4958926;28;20075;-68
2023/10/01 15:31:33;;;;;;;18.50;5.28;;;;;;;;;;4939144;28;20051;-73
2023/10/01 15:34:01;;;;;;;16.13;4.90;;;;;;;;;;4945337;28;20055;-67
2023/10/01 15:36:48;;;;;;;;;;;;;;;;;;4916690;29;20063;-70
2023/10/01 15:42:12;;;;;;;19.40;5.13;;;;;;;;;;4924547;28;20070;-65
2023/10/01 15:44:47;;;;;;;14.73;4.35;;;;;;;;;;4940982;28;20126;-71
2023/10/01 15:47:32;;;;;;;27.83;12.10;;;;;;;;;;4909049;28;20067;-65
2023/10/01 15:50:05;;;;;;;23.67;9.57;;;;;;;;;;4942868;29;20055;-66
2023/10/01 15:52:38;;;;;;;19.13;8.10;;;;;;;;;;4944921;28;20070;-66
2023/10/01 15:55:13;;;;;;;19.00;5.72;;;;;;;;;;4944526;28;20057;-64
2023/10/01 15:57:40;;;;;;;14.27;5.10;;;;;;;;;;4946827;28;20051;-68
2023/10/01 16:00:25;;;;;;;15.57;4.88;;;;;;;;;;4943957;28;20082;-64
2023/10/01 16:03:02;;;;;;;13.82;4.80;;;;;;;;;;4948354;28;20053;-62
2023/10/01 16:05:39;;;;;;;21.83;5.18;;;;;;;;;;4942819;28;20063;-64
2023/10/01 16:08:08;;;;;;;15.48;5.07;;;;;;;;;;4939991;28;20078;-66
2023/10/01 16:10:43;;;;;;;16.17;5.57;;;;;;;;;;4958162;28;20055;-66
2023/10/01 16:13:12;;;;;;;22.88;8.98;;;;;;;;;;4937482;28;20070;-63
2023/10/01 16:15:44;;;;;;;20.02;7.03;;;;;;;;;;4941440;28;20071;-64
2023/10/01 16:18:16;;;;;;;22.30;8.82;;;;;;;;;;4940610;28;20051;-64
2023/10/01 16:20:43;;;;;;;23.45;10.18;;;;;;;;;;4944415;28;20063;-66
2023/10/01 16:23:16;;;;;;;20.33;7.72;;;;;;;;;;4937510;28;20071;-65
2023/10/01 16:25:45;;;;;;;18.30;7.22;;;;;;;;;;4942916;28;20115;-65
2023/10/01 16:28:20;;;;;;;18.23;6.50;;;;;;;;;;4940896;28;20233;-64
2023/10/01 16:30:52;;;;;;;17.85;5.45;;;;;;;;;;4942502;29;20051;-65
2023/10/01 16:33:21;;;;;;;18.25;5.90;;;;;;;;;;4959767;28;20050;-61
2023/10/01 16:35:49;;;;;;;20.60;5.40;;;;;;;;;;4977292;28;20148;-63
2023/10/01 16:38:19;;;;;;;15.43;5.05;;;;;;;;;;4943298;28;20057;-62